Time;durP1;ratioP1;P1;durP2;ratioP2;P2;SDS_P1;SDS_P2;PMS_P1;PMS_P2;Temp;Humidity;BMP_temperature;BMP_pressure;BME280_temperature;BME280_humidity;BME280_pressure;Samples;Min_cycle;Max_cycle;Signal;HPM_P1;HPM_P2
2023/03/04 00:00:19;;;;;;;114.90;40.47;;;;;;;;;;5008636;28;20548;-71
2023/03/04 00:02:44;;;;;;;128.75;40.38;;;;;;;;;;5001645;28;20026;-71
2023/03/04 00:05:09;;;;;;;137.88;42.88;;;;;;;;;;5007514;28;20029;-71
2023/03/04 00:07:35;;;;;;;138.23;43.25;;;;;;;;;;5000661;28;20030;-71
2023/03/04 00:10:00;;;;;;;132.55;43.28;;;;;;;;;;5009235;28;20023;-71
2023/03/04 00:12:25;;;;;;;133.88;40.95;;;;;;;;;;5003065;28;20022;-71
2023/03/04 00:14:51;;;;;;;122.80;39.95;;;;;;;;;;5010890;28;20086;-71
2023/03/04 00:17:16;;;;;;;111.75;38.80;;;;;;;;;;5004908;28;20030;-71
2023/03/04 00:19:41;;;;;;;117.68;39.42;;;;;;;;;;5007334;28;20022;-71
2023/03/04 00:22:06;;;;;;;113.80;35.25;;;;;;;;;;5006606;28;20025;-71
2023/03/04 00:24:32;;;;;;;133.90;40.45;;;;;;;;;;5009092;28;20034;-71
2023/03/04 00:26:57;;;;;;;130.88;40.95;;;;;;;;;;5003625;28;20097;-71
2023/03/04 00:29:22;;;;;;;120.63;37.75;;;;;;;;;;5009972;28;20029;-71
2023/03/04 00:31:47;;;;;;;128.85;37.28;;;;;;;;;;5001792;28;20022;-71
2023/03/04 00:34:12;;;;;;;115.60;42.27;;;;;;;;;;5009076;28;20750;-71
2023/03/04 00:36:38;;;;;;;132.23;40.38;;;;;;;;;;5008855;28;20268;-71
2023/03/04 00:39:03;;;;;;;120.22;38.58;;;;;;;;;;5008029;28;20018;-71
2023/03/04 00:41:28;;;;;;;134.27;43.17;;;;;;;;;;5005471;28;20121;-71
2023/03/04 00:43:53;;;;;;;134.95;44.92;;;;;;;;;;5006651;28;20025;-71
2023/03/04 00:46:18;;;;;;;129.02;39.72;;;;;;;;;;5008777;28;20480;-71
2023/03/04 00:48:44;;;;;;;139.68;41.40;;;;;;;;;;5007112;28;20034;-71
2023/03/04 00:51:09;;;;;;;129.68;40.75;;;;;;;;;;5010147;28;20033;-71
2023/03/04 00:53:34;;;;;;;135.57;41.77;;;;;;;;;;5006988;28;20022;-71
2023/03/04 00:55:59;;;;;;;124.40;39.00;;;;;;;;;;5008180;28;20643;-71
2023/03/04 00:58:24;;;;;;;126.95;40.03;;;;;;;;;;5006640;28;20025;-71
2023/03/04 01:00:50;;;;;;;136.82;40.90;;;;;;;;;;5009281;28;20033;-71
2023/03/04 01:03:15;;;;;;;122.90;39.55;;;;;;;;;;5000712;28;20079;-71
2023/03/04 01:05:40;;;;;;;118.32;35.42;;;;;;;;;;5005953;28;20029;-71
2023/03/04 01:08:05;;;;;;;126.97;43.95;;;;;;;;;;5004597;28;20018;-71
2023/03/04 01:10:31;;;;;;;124.78;39.15;;;;;;;;;;5007288;28;20487;-71
2023/03/04 01:12:56;;;;;;;131.45;44.65;;;;;;;;;;5010581;28;20025;-71
2023/03/04 01:15:22;;;;;;;130.43;39.28;;;;;;;;;;5005379;28;20450;-71
2023/03/04 01:17:47;;;;;;;134.35;41.30;;;;;;;;;;5008234;28;20107;-71
2023/03/04 01:20:12;;;;;;;136.63;44.38;;;;;;;;;;5004027;28;20029;-71
2023/03/04 01:22:37;;;;;;;134.50;39.78;;;;;;;;;;5007464;28;20030;-71
2023/03/04 01:25:03;;;;;;;117.50;37.65;;;;;;;;;;5005088;28;20029;-71
2023/03/04 01:27:28;;;;;;;146.73;44.55;;;;;;;;;;5007760;28;20522;-71
2023/03/04 01:29:53;;;;;;;132.45;36.75;;;;;;;;;;5002714;28;20434;-71
2023/03/04 01:32:19;;;;;;;139.23;44.28;;;;;;;;;;5006193;28;20411;-71
2023/03/04 01:34:44;;;;;;;117.75;34.83;;;;;;;;;;5006698;28;20478;-71
2023/03/04 01:37:10;;;;;;;144.35;45.17;;;;;;;;;;5008764;28;20125;-71
2023/03/04 01:39:35;;;;;;;141.63;43.78;;;;;;;;;;5002267;28;20061;-71
2023/03/04 01:42:00;;;;;;;132.13;41.60;;;;;;;;;;5005333;28;20065;-71
2023/03/04 01:44:25;;;;;;;132.45;41.95;;;;;;;;;;5007640;28;20750;-71
2023/03/04 01:46:52;;;;;;;134.73;43.92;;;;;;;;;;5004152;28;20030;-71
2023/03/04 01:49:17;;;;;;;151.43;46.10;;;;;;;;;;5005140;28;20026;-71
2023/03/04 01:51:43;;;;;;;147.68;46.20;;;;;;;;;;5008947;28;20083;-71
2023/03/04 01:54:09;;;;;;;133.27;43.95;;;;;;;;;;5002632;28;20088;-71
2023/03/04 01:56:35;;;;;;;147.00;43.00;;;;;;;;;;5007456;28;20041;-71
2023/03/04 01:59:19;;;;;;;138.60;44.15;;;;;;;;;;5009173;28;20079;-71
2023/03/04 02:01:49;;;;;;;154.38;46.13;;;;;;;;;;5006179;28;20029;-71
2023/03/04 02:04:18;;;;;;;145.32;47.63;;;;;;;;;;5005770;28;20026;-71
2023/03/04 02:06:43;;;;;;;145.52;46.15;;;;;;;;;;4999792;28;20105;-71
2023/03/04 02:09:09;;;;;;;131.65;41.40;;;;;;;;;;5007943;28;20116;-71
2023/03/04 02:11:35;;;;;;;130.50;40.42;;;;;;;;;;5006995;28;20089;-71
2023/03/04 02:14:00;;;;;;;154.30;48.22;;;;;;;;;;5008292;28;20037;-71
2023/03/04 02:16:26;;;;;;;143.13;44.35;;;;;;;;;;5002016;28;20118;-71
2023/03/04 02:18:51;;;;;;;145.50;46.50;;;;;;;;;;5005537;28;20029;-71
2023/03/04 02:21:16;;;;;;;137.27;42.63;;;;;;;;;;5001281;28;20030;-71
2023/03/04 02:23:41;;;;;;;147.57;41.60;;;;;;;;;;5008847;28;20300;-71
2023/03/04 02:26:13;;;;;;;134.88;41.25;;;;;;;;;;5004561;28;20542;-71
2023/03/04 02:28:38;;;;;;;139.40;45.55;;;;;;;;;;5008082;28;20317;-71
2023/03/04 02:31:03;;;;;;;132.82;43.40;;;;;;;;;;5003320;28;20460;-71
2023/03/04 02:33:29;;;;;;;124.75;37.30;;;;;;;;;;5006822;28;20452;-71
2023/03/04 02:35:54;;;;;;;143.25;45.55;;;;;;;;;;5006106;28;20029;-71
2023/03/04 02:38:20;;;;;;;134.77;44.00;;;;;;;;;;5006446;28;20076;-71
2023/03/04 02:40:47;;;;;;;136.73;43.47;;;;;;;;;;5006518;28;20109;-71
2023/03/04 02:43:12;;;;;;;146.68;44.38;;;;;;;;;;5008067;28;20518;-71
2023/03/04 02:45:45;;;;;;;142.63;46.10;;;;;;;;;;5011900;28;20029;-71
2023/03/04 02:48:11;;;;;;;147.65;44.50;;;;;;;;;;5011060;28;20160;-71
2023/03/04 02:50:39;;;;;;;130.75;41.38;;;;;;;;;;5006981;28;20112;-71
2023/03/04 02:53:05;;;;;;;149.18;42.83;;;;;;;;;;5009881;28;20379;-71
2023/03/04 02:55:31;;;;;;;149.25;49.97;;;;;;;;;;5009252;28;20029;-71
2023/03/04 02:57:56;;;;;;;142.70;42.63;;;;;;;;;;5010831;28;20018;-71
2023/03/04 03:00:21;;;;;;;137.27;42.45;;;;;;;;;;5011626;28;20049;-71
2023/03/04 03:02:46;;;;;;;130.70;43.90;;;;;;;;;;5009035;28;20030;-71
2023/03/04 03:05:12;;;;;;;139.57;42.03;;;;;;;;;;5007898;28;20378;-71
2023/03/04 03:07:37;;;;;;;137.98;48.33;;;;;;;;;;5009556;28;20018;-71
2023/03/04 03:10:03;;;;;;;130.88;44.50;;;;;;;;;;5006353;28;20419;-71
2023/03/04 03:12:28;;;;;;;141.77;43.60;;;;;;;;;;5006066;28;20084;-71
2023/03/04 03:14:53;;;;;;;141.95;42.97;;;;;;;;;;5013425;28;20019;-71
2023/03/04 03:17:18;;;;;;;138.18;43.42;;;;;;;;;;5008067;28;20021;-71
2023/03/04 03:19:43;;;;;;;128.80;40.97;;;;;;;;;;5009716;28;20029;-71
2023/03/04 03:22:09;;;;;;;141.07;44.23;;;;;;;;;;5008493;28;20398;-71
2023/03/04 03:24:34;;;;;;;145.10;45.33;;;;;;;;;;5012029;28;20261;-71
2023/03/04 03:26:59;;;;;;;131.27;41.40;;;;;;;;;;5007617;28;20022;-71
2023/03/04 03:29:24;;;;;;;138.45;44.17;;;;;;;;;;5011615;28;20467;-71
2023/03/04 03:31:49;;;;;;;133.45;40.25;;;;;;;;;;5007704;28;20367;-71
2023/03/04 03:34:15;;;;;;;151.50;45.78;;;;;;;;;;5011603;28;20057;-71
2023/03/04 03:36:40;;;;;;;134.38;43.03;;;;;;;;;;5007155;28;20018;-71
2023/03/04 03:39:05;;;;;;;130.85;42.63;;;;;;;;;;5009814;28;20029;-71
2023/03/04 03:41:30;;;;;;;152.80;46.20;;;;;;;;;;5005567;28;20018;-71
2023/03/04 03:43:55;;;;;;;136.70;39.63;;;;;;;;;;5004082;28;20097;-71
2023/03/04 03:46:21;;;;;;;145.00;47.22;;;;;;;;;;5004858;28;20025;-71
2023/03/04 03:48:46;;;;;;;145.45;45.78;;;;;;;;;;5007037;28;20029;-71
2023/03/04 03:51:11;;;;;;;133.48;44.58;;;;;;;;;;5010324;28;20041;-71
2023/03/04 03:53:36;;;;;;;129.88;42.78;;;;;;;;;;5009056;28;20647;-71
2023/03/04 03:56:02;;;;;;;139.90;43.63;;;;;;;;;;5009959;28;20734;-71
2023/03/04 03:58:27;;;;;;;147.95;46.55;;;;;;;;;;5008733;28;20475;-71
2023/03/04 04:00:52;;;;;;;150.50;46.85;;;;;;;;;;5010039;28;20515;-71
2023/03/04 04:03:17;;;;;;;143.02;46.30;;;;;;;;;;5007343;28;20126;-71
2023/03/04 04:05:43;;;;;;;136.48;43.50;;;;;;;;;;5009420;28;20025;-71
2023/03/04 04:08:14;;;;;;;134.93;40.75;;;;;;;;;;5005135;28;20113;-71
2023/03/04 04:10:40;;;;;;;146.18;45.67;;;;;;;;;;5011170;28;20014;-71
2023/03/04 04:13:05;;;;;;;142.70;46.42;;;;;;;;;;5008966;28;20022;-71
2023/03/04 04:15:30;;;;;;;139.77;43.30;;;;;;;;;;5009781;28;20022;-71
2023/03/04 04:17:55;;;;;;;134.80;41.20;;;;;;;;;;5007125;28;20289;-71
2023/03/04 04:20:20;;;;;;;139.60;42.72;;;;;;;;;;5011950;28;20033;-71
2023/03/04 04:22:45;;;;;;;143.37;44.07;;;;;;;;;;5008120;28;20426;-71
2023/03/04 04:25:11;;;;;;;133.47;42.77;;;;;;;;;;5009409;28;20280;-71
2023/03/04 04:27:36;;;;;;;122.82;42.33;;;;;;;;;;5008143;28;20669;-71
2023/03/04 04:30:02;;;;;;;134.57;43.38;;;;;;;;;;5010089;28;20057;-71
2023/03/04 04:32:27;;;;;;;124.00;40.40;;;;;;;;;;5005290;28;20026;-71
2023/03/04 04:34:52;;;;;;;121.75;39.97;;;;;;;;;;5006164;28;20146;-72
2023/03/04 04:37:17;;;;;;;121.82;39.20;;;;;;;;;;5009550;28;20033;-72
2023/03/04 04:39:43;;;;;;;115.50;37.80;;;;;;;;;;5007142;28;20017;-72
2023/03/04 04:42:09;;;;;;;130.57;39.23;;;;;;;;;;5009340;28;20698;-72
2023/03/04 04:44:35;;;;;;;128.15;39.45;;;;;;;;;;5005096;28;20285;-72
2023/03/04 04:47:00;;;;;;;128.43;40.40;;;;;;;;;;5004234;28;20018;-71
2023/03/04 04:49:25;;;;;;;118.83;38.00;;;;;;;;;;5008462;28;20348;-71
2023/03/04 04:51:50;;;;;;;132.10;40.35;;;;;;;;;;5001583;28;20300;-71
2023/03/04 04:54:16;;;;;;;120.17;38.80;;;;;;;;;;5006566;28;20034;-71
2023/03/04 04:56:41;;;;;;;123.82;39.08;;;;;;;;;;5005070;28;20269;-71
2023/03/04 04:59:07;;;;;;;111.85;39.75;;;;;;;;;;5006217;28;20025;-71
2023/03/04 05:01:33;;;;;;;115.57;39.53;;;;;;;;;;5001329;28;20478;-71
2023/03/04 05:03:58;;;;;;;124.10;40.45;;;;;;;;;;4995081;28;20142;-71
2023/03/04 05:06:24;;;;;;;122.57;42.05;;;;;;;;;;5003628;28;20018;-71
2023/03/04 05:08:49;;;;;;;123.05;40.10;;;;;;;;;;5001940;28;20086;-71
2023/03/04 05:11:15;;;;;;;115.43;39.25;;;;;;;;;;5007544;28;20146;-71
2023/03/04 05:13:40;;;;;;;111.80;39.10;;;;;;;;;;5001505;28;20029;-71
2023/03/04 05:16:06;;;;;;;118.55;38.92;;;;;;;;;;5007503;28;20484;-71
2023/03/04 05:18:31;;;;;;;126.10;38.08;;;;;;;;;;5008153;28;20033;-71
2023/03/04 05:20:58;;;;;;;113.88;38.45;;;;;;;;;;5005639;28;20587;-71
2023/03/04 05:23:23;;;;;;;124.55;40.08;;;;;;;;;;5004931;28;20200;-71
2023/03/04 05:25:49;;;;;;;137.13;43.90;;;;;;;;;;5004026;28;20136;-71
2023/03/04 05:28:14;;;;;;;127.63;40.03;;;;;;;;;;5000921;28;20034;-71
2023/03/04 05:30:40;;;;;;;143.55;45.17;;;;;;;;;;5007196;28;20172;-71
2023/03/04 05:33:07;;;;;;;128.93;40.88;;;;;;;;;;4999995;28;20083;-71
2023/03/04 05:35:33;;;;;;;131.43;41.47;;;;;;;;;;5007483;28;20095;-71
2023/03/04 05:37:58;;;;;;;128.90;41.88;;;;;;;;;;5005136;28;20056;-72
2023/03/04 05:40:24;;;;;;;128.70;45.30;;;;;;;;;;5007033;28;20038;-71
2023/03/04 05:42:49;;;;;;;132.93;42.05;;;;;;;;;;5008572;28;20283;-71
2023/03/04 05:45:15;;;;;;;128.05;46.03;;;;;;;;;;5004564;28;20030;-71
2023/03/04 05:47:40;;;;;;;129.30;42.65;;;;;;;;;;5009011;28;20017;-71
2023/03/04 05:50:05;;;;;;;131.85;43.47;;;;;;;;;;5007320;28;20022;-71
2023/03/04 05:52:30;;;;;;;122.30;42.50;;;;;;;;;;5007630;28;20105;-71
2023/03/04 05:54:56;;;;;;;125.00;40.30;;;;;;;;;;5005244;28;20028;-71
2023/03/04 05:57:21;;;;;;;115.97;39.30;;;;;;;;;;5000173;28;20261;-71
2023/03/04 05:59:46;;;;;;;117.60;38.53;;;;;;;;;;5000001;28;20057;-72
2023/03/04 06:02:11;;;;;;;104.47;37.20;;;;;;;;;;5003650;28;20025;-71
2023/03/04 06:04:36;;;;;;;112.22;37.40;;;;;;;;;;5003307;28;20033;-71
2023/03/04 06:07:01;;;;;;;116.20;38.95;;;;;;;;;;5008138;28;20037;-71
2023/03/04 06:09:27;;;;;;;110.85;37.30;;;;;;;;;;5002584;28;20073;-71
2023/03/04 06:11:52;;;;;;;113.10;38.83;;;;;;;;;;5007379;28;20026;-71
2023/03/04 06:14:17;;;;;;;110.05;37.22;;;;;;;;;;5004044;28;20058;-71
2023/03/04 06:16:42;;;;;;;112.85;39.63;;;;;;;;;;5001979;28;20189;-71
2023/03/04 06:19:07;;;;;;;110.63;38.07;;;;;;;;;;5006472;28;20030;-71
2023/03/04 06:21:33;;;;;;;126.68;39.55;;;;;;;;;;5001792;28;20720;-71
2023/03/04 06:23:58;;;;;;;108.77;37.67;;;;;;;;;;5008560;28;20026;-71
2023/03/04 06:26:23;;;;;;;110.07;36.37;;;;;;;;;;5009431;28;20864;-71
2023/03/04 06:28:48;;;;;;;111.55;36.38;;;;;;;;;;5005050;28;20284;-72
2023/03/04 06:31:13;;;;;;;114.75;36.63;;;;;;;;;;5005778;28;20045;-72
2023/03/04 06:33:39;;;;;;;106.55;36.28;;;;;;;;;;5006016;28;20060;-72
2023/03/04 06:36:04;;;;;;;102.68;35.20;;;;;;;;;;5003503;28;20024;-72
2023/03/04 06:38:29;;;;;;;116.78;38.67;;;;;;;;;;5007984;28;20030;-72
2023/03/04 06:40:54;;;;;;;113.47;37.00;;;;;;;;;;5006172;28;20108;-72
2023/03/04 06:43:19;;;;;;;107.03;35.90;;;;;;;;;;5006708;28;20696;-72
2023/03/04 06:45:45;;;;;;;107.15;36.08;;;;;;;;;;5002511;28;20040;-72
2023/03/04 06:48:10;;;;;;;100.20;34.13;;;;;;;;;;5006097;28;20038;-72
2023/03/04 06:50:35;;;;;;;100.15;35.90;;;;;;;;;;5002702;28;20113;-72
2023/03/04 06:53:00;;;;;;;106.50;35.03;;;;;;;;;;5006705;28;20049;-72
2023/03/04 06:55:26;;;;;;;107.95;35.95;;;;;;;;;;5005337;28;20372;-72
2023/03/04 06:57:51;;;;;;;109.72;34.38;;;;;;;;;;5007964;28;20037;-72
2023/03/04 07:00:17;;;;;;;100.25;35.70;;;;;;;;;;5006326;28;20075;-72
2023/03/04 07:02:42;;;;;;;105.95;35.35;;;;;;;;;;5006023;28;20079;-72
2023/03/04 07:05:08;;;;;;;114.38;34.42;;;;;;;;;;5007817;28;20503;-72
2023/03/04 07:07:33;;;;;;;113.47;34.67;;;;;;;;;;5009333;28;20101;-72
2023/03/04 07:09:58;;;;;;;107.07;36.63;;;;;;;;;;5005610;28;20467;-72
2023/03/04 07:12:24;;;;;;;98.47;32.97;;;;;;;;;;5004727;28;20272;-72
2023/03/04 07:14:49;;;;;;;99.18;34.33;;;;;;;;;;5003774;28;20033;-72
2023/03/04 07:17:14;;;;;;;91.73;32.57;;;;;;;;;;5006593;28;20029;-72
2023/03/04 07:19:40;;;;;;;94.27;30.33;;;;;;;;;;5004288;28;20273;-72
2023/03/04 07:22:06;;;;;;;97.72;30.17;;;;;;;;;;5003721;28;20281;-72
2023/03/04 07:24:31;;;;;;;106.25;32.92;;;;;;;;;;5007974;28;20042;-72
2023/03/04 07:26:56;;;;;;;87.03;29.90;;;;;;;;;;5006106;28;20041;-72
2023/03/04 07:29:21;;;;;;;99.53;30.35;;;;;;;;;;5006102;28;20025;-72
2023/03/04 07:31:46;;;;;;;83.07;29.60;;;;;;;;;;5000254;28;20124;-72
2023/03/04 07:34:12;;;;;;;100.13;29.15;;;;;;;;;;5006966;28;20025;-72
2023/03/04 07:36:39;;;;;;;77.22;25.02;;;;;;;;;;5003667;28;20076;-72
2023/03/04 07:39:04;;;;;;;60.83;19.70;;;;;;;;;;5004208;28;20022;-72
2023/03/04 07:41:29;;;;;;;70.82;20.40;;;;;;;;;;5001466;28;20494;-72
2023/03/04 07:43:55;;;;;;;59.85;17.33;;;;;;;;;;5003446;28;20057;-72
2023/03/04 07:46:20;;;;;;;54.05;18.63;;;;;;;;;;5004116;28;20026;-72
2023/03/04 07:48:46;;;;;;;61.28;18.55;;;;;;;;;;4999158;28;20108;-72
2023/03/04 07:51:18;;;;;;;71.00;22.00;;;;;;;;;;5000011;28;20548;-72
2023/03/04 07:53:46;;;;;;;69.13;20.38;;;;;;;;;;5002937;28;20108;-72
2023/03/04 07:56:12;;;;;;;64.65;18.73;;;;;;;;;;5009128;28;20018;-72
2023/03/04 07:58:37;;;;;;;64.32;17.92;;;;;;;;;;5005386;28;20105;-72
2023/03/04 08:01:10;;;;;;;56.78;16.92;;;;;;;;;;5002982;28;20096;-72
2023/03/04 08:03:35;;;;;;;53.10;16.67;;;;;;;;;;4998161;28;20022;-72
2023/03/04 08:06:02;;;;;;;49.50;18.00;;;;;;;;;;5002627;28;20376;-72
2023/03/04 08:08:28;;;;;;;46.22;14.63;;;;;;;;;;5006168;28;20685;-72
2023/03/04 08:10:53;;;;;;;53.53;13.97;;;;;;;;;;5005340;28;20029;-72
2023/03/04 08:13:18;;;;;;;44.97;13.00;;;;;;;;;;5011111;28;20296;-72
2023/03/04 08:15:43;;;;;;;41.40;11.57;;;;;;;;;;5001516;28;20419;-72
2023/03/04 08:18:08;;;;;;;44.50;14.05;;;;;;;;;;5008806;28;20292;-72
2023/03/04 08:20:35;;;;;;;39.28;11.77;;;;;;;;;;5005679;28;20495;-72
2023/03/04 08:23:00;;;;;;;39.83;11.75;;;;;;;;;;5009675;28;20113;-72
2023/03/04 08:25:25;;;;;;;40.72;12.05;;;;;;;;;;5004282;28;20037;-72
2023/03/04 08:27:50;;;;;;;35.90;11.00;;;;;;;;;;5003568;28;20030;-72
2023/03/04 08:30:15;;;;;;;22.60;8.85;;;;;;;;;;5000613;28;20327;-72
2023/03/04 08:32:41;;;;;;;34.15;9.88;;;;;;;;;;5004186;28;20796;-72
2023/03/04 08:35:06;;;;;;;33.05;8.02;;;;;;;;;;5002614;28;20068;-72
2023/03/04 08:37:31;;;;;;;33.80;8.07;;;;;;;;;;5005946;28;20061;-72
2023/03/04 08:39:56;;;;;;;26.10;8.05;;;;;;;;;;5005652;28;20515;-72
2023/03/04 08:42:23;;;;;;;26.80;7.47;;;;;;;;;;5002080;28;20029;-71
2023/03/04 08:44:48;;;;;;;17.48;5.57;;;;;;;;;;5002158;28;20025;-71
2023/03/04 08:47:13;;;;;;;21.13;5.72;;;;;;;;;;5001773;28;20022;-71
2023/03/04 08:49:38;;;;;;;25.23;5.70;;;;;;;;;;5003441;28;20029;-72
2023/03/04 08:52:04;;;;;;;19.02;5.30;;;;;;;;;;5005134;28;20260;-71
2023/03/04 08:54:29;;;;;;;25.10;4.95;;;;;;;;;;5004349;28;20060;-71
2023/03/04 08:56:54;;;;;;;22.23;4.10;;;;;;;;;;5001460;28;20017;-72
2023/03/04 08:59:19;;;;;;;25.17;7.53;;;;;;;;;;5003786;28;20582;-72
2023/03/04 09:01:45;;;;;;;15.65;3.88;;;;;;;;;;4999848;28;20018;-71
2023/03/04 09:04:10;;;;;;;13.93;4.25;;;;;;;;;;5004058;28;20041;-71
2023/03/04 09:06:35;;;;;;;18.50;5.00;;;;;;;;;;5005899;28;20640;-71
2023/03/04 09:09:00;;;;;;;40.30;5.93;;;;;;;;;;5002659;28;20022;-71
2023/03/04 09:11:25;;;;;;;29.73;5.43;;;;;;;;;;5004272;28;20026;-71
2023/03/04 09:13:51;;;;;;;26.45;6.82;;;;;;;;;;5000733;28;20046;-71
2023/03/04 09:16:16;;;;;;;19.17;5.72;;;;;;;;;;5004001;28;20014;-71
2023/03/04 09:18:41;;;;;;;22.40;6.90;;;;;;;;;;5004145;28;20038;-72
2023/03/04 09:21:07;;;;;;;24.63;6.20;;;;;;;;;;5008267;28;20025;-72
2023/03/04 09:23:33;;;;;;;17.60;5.65;;;;;;;;;;5002178;28;20717;-72
2023/03/04 09:25:58;;;;;;;24.98;5.20;;;;;;;;;;4997549;28;20065;-72
2023/03/04 09:28:23;;;;;;;15.60;4.03;;;;;;;;;;4990204;28;20027;-71
2023/03/04 09:30:49;;;;;;;11.75;4.85;;;;;;;;;;4995753;28;20022;-71
2023/03/04 09:33:14;;;;;;;21.43;5.17;;;;;;;;;;4999487;28;20482;-72
2023/03/04 09:35:39;;;;;;;17.58;5.20;;;;;;;;;;5002897;28;20363;-72
2023/03/04 09:38:05;;;;;;;18.03;5.17;;;;;;;;;;5005144;28;20025;-71
2023/03/04 09:40:39;;;;;;;23.27;7.35;;;;;;;;;;5006900;28;20467;-71
2023/03/04 09:43:06;;;;;;;28.58;6.93;;;;;;;;;;5005727;28;20383;-71
2023/03/04 09:45:44;;;;;;;19.70;5.75;;;;;;;;;;5005201;28;20017;-72
2023/03/04 09:48:12;;;;;;;23.55;7.50;;;;;;;;;;5002767;28;20025;-71
2023/03/04 09:50:41;;;;;;;23.67;7.65;;;;;;;;;;5003379;28;20473;-71
2023/03/04 09:53:21;;;;;;;24.80;6.80;;;;;;;;;;5000236;28;20464;-72
2023/03/04 09:55:48;;;;;;;22.45;6.15;;;;;;;;;;5000402;28;20021;-71
2023/03/04 09:58:32;;;;;;;19.75;6.55;;;;;;;;;;5008790;28;20062;-71
2023/03/04 10:01:04;;;;;;;18.70;6.53;;;;;;;;;;5004717;28;20022;-72
2023/03/04 10:03:39;;;;;;;28.80;8.52;;;;;;;;;;5007786;28;20026;-71
2023/03/04 10:06:06;;;;;;;24.63;9.55;;;;;;;;;;5001960;28;20052;-72
2023/03/04 10:08:34;;;;;;;30.17;12.07;;;;;;;;;;5004624;28;20026;-71
2023/03/04 10:11:00;;;;;;;31.17;11.07;;;;;;;;;;5002303;28;21015;-71
2023/03/04 10:13:32;;;;;;;27.00;10.95;;;;;;;;;;5008361;28;20093;-71
2023/03/04 10:15:57;;;;;;;36.88;13.20;;;;;;;;;;5004526;28;20030;-71
2023/03/04 10:18:26;;;;;;;31.92;11.93;;;;;;;;;;5006246;28;20037;-72
2023/03/04 10:20:53;;;;;;;22.48;8.43;;;;;;;;;;5007642;28;20018;-71
2023/03/04 10:23:20;;;;;;;22.65;9.10;;;;;;;;;;5002402;28;20112;-72
2023/03/04 10:25:50;;;;;;;27.98;8.93;;;;;;;;;;5002233;28;20022;-71
2023/03/04 10:28:16;;;;;;;23.10;8.68;;;;;;;;;;5002738;28;20096;-72
2023/03/04 10:30:48;;;;;;;22.35;7.15;;;;;;;;;;5005520;28;20083;-71
2023/03/04 10:33:14;;;;;;;17.80;6.50;;;;;;;;;;5000090;28;20392;-72
2023/03/04 10:35:41;;;;;;;26.92;7.05;;;;;;;;;;4998197;28;20501;-72
2023/03/04 10:38:08;;;;;;;17.15;5.43;;;;;;;;;;4996335;28;20026;-72
2023/03/04 10:40:38;;;;;;;17.30;4.57;;;;;;;;;;5003708;28;20049;-72
2023/03/04 10:43:06;;;;;;;21.13;3.97;;;;;;;;;;5000660;28;20026;-72
2023/03/04 10:45:36;;;;;;;13.93;4.30;;;;;;;;;;5001872;28;20031;-72
2023/03/04 10:48:02;;;;;;;11.00;3.75;;;;;;;;;;5001868;28;20084;-71
2023/03/04 10:50:28;;;;;;;26.60;4.25;;;;;;;;;;5003653;28;20041;-72
2023/03/04 10:52:54;;;;;;;11.82;4.25;;;;;;;;;;5004063;28;20140;-72
2023/03/04 10:55:26;;;;;;;10.90;4.82;;;;;;;;;;5006815;28;20022;-72
2023/03/04 10:57:53;;;;;;;21.35;5.53;;;;;;;;;;5006423;28;20640;-72
2023/03/04 11:00:32;;;;;;;13.25;5.00;;;;;;;;;;5004417;28;20025;-72
2023/03/04 11:03:18;;;;;;;12.82;3.88;;;;;;;;;;4999417;28;20021;-72
2023/03/04 11:05:43;;;;;;;14.50;4.43;;;;;;;;;;5008660;28;20030;-72
2023/03/04 11:08:16;;;;;;;17.07;4.23;;;;;;;;;;5011053;28;20030;-72
2023/03/04 11:10:42;;;;;;;12.90;4.47;;;;;;;;;;5009031;28;20277;-72
2023/03/04 11:13:09;;;;;;;16.23;4.50;;;;;;;;;;5008258;28;20033;-72
2023/03/04 11:15:53;;;;;;;14.38;5.55;;;;;;;;;;5009578;28;20387;-72
2023/03/04 11:18:37;;;;;;;9.32;3.97;;;;;;;;;;5003133;28;20399;-72
2023/03/04 11:21:03;;;;;;;18.23;4.78;;;;;;;;;;5008000;28;20037;-72
2023/03/04 11:23:39;;;;;;;14.93;4.10;;;;;;;;;;5007642;28;20091;-72
2023/03/04 11:26:09;;;;;;;20.05;4.03;;;;;;;;;;5005387;28;20033;-72
2023/03/04 11:28:40;;;;;;;14.70;4.57;;;;;;;;;;5007688;28;20056;-72
2023/03/04 11:31:09;;;;;;;11.02;4.55;;;;;;;;;;5006709;28;20666;-71
2023/03/04 11:33:46;;;;;;;14.88;4.20;;;;;;;;;;5009963;28;20558;-72
2023/03/04 11:36:17;;;;;;;10.90;4.00;;;;;;;;;;5004788;28;20030;-72
2023/03/04 11:38:45;;;;;;;16.00;4.55;;;;;;;;;;5007232;28;20022;-72
2023/03/04 11:41:30;;;;;;;12.77;4.85;;;;;;;;;;5010359;28;20030;-72
2023/03/04 11:43:56;;;;;;;17.75;6.10;;;;;;;;;;5005430;28;20030;-72
2023/03/04 11:46:40;;;;;;;15.35;5.72;;;;;;;;;;5006158;28;20514;-72
2023/03/04 11:49:15;;;;;;;9.65;4.32;;;;;;;;;;5005288;28;20029;-72
2023/03/04 11:51:59;;;;;;;18.17;4.38;;;;;;;;;;5004431;28;20566;-72
2023/03/04 11:54:33;;;;;;;10.55;4.20;;;;;;;;;;5008743;28;20075;-71
2023/03/04 11:57:01;;;;;;;16.10;5.72;;;;;;;;;;5009481;28;20030;-72
2023/03/04 11:59:39;;;;;;;10.55;4.57;;;;;;;;;;5007867;28;20487;-72
2023/03/04 12:02:11;;;;;;;15.13;3.40;;;;;;;;;;5004208;28;20121;-72
2023/03/04 12:04:45;;;;;;;6.57;2.90;;;;;;;;;;5006487;28;20052;-72
2023/03/04 12:07:27;;;;;;;8.48;2.80;;;;;;;;;;5010406;28;20452;-71
2023/03/04 12:10:11;;;;;;;5.55;2.53;;;;;;;;;;5005622;28;20021;-72
2023/03/04 12:12:56;;;;;;;10.40;2.67;;;;;;;;;;5006863;28;20072;-72
2023/03/04 12:15:30;;;;;;;7.40;1.98;;;;;;;;;;5007545;28;20641;-72
2023/03/04 12:18:15;;;;;;;16.17;2.60;;;;;;;;;;5011086;28;20107;-71
2023/03/04 12:20:41;;;;;;;13.52;3.03;;;;;;;;;;5012111;28;20025;-71
2023/03/04 12:23:24;;;;;;;6.70;1.85;;;;;;;;;;5012231;28;20399;-71
2023/03/04 12:25:52;;;;;;;5.18;2.03;;;;;;;;;;5011248;28;20399;-72
2023/03/04 12:28:29;;;;;;;10.00;1.70;;;;;;;;;;5012075;28;20021;-72
2023/03/04 12:31:10;;;;;;;12.60;1.85;;;;;;;;;;5011246;28;20101;-71
2023/03/04 12:33:37;;;;;;;7.03;2.30;;;;;;;;;;5009424;28;20088;-72
2023/03/04 12:36:16;;;;;;;12.85;2.50;;;;;;;;;;5011616;28;20021;-72
2023/03/04 12:38:58;;;;;;;14.05;3.92;;;;;;;;;;5010880;28;20056;-72
2023/03/04 12:41:42;;;;;;;9.88;2.78;;;;;;;;;;5008240;28;20022;-72
2023/03/04 12:44:12;;;;;;;8.73;1.95;;;;;;;;;;5012110;28;20025;-70
2023/03/04 12:46:40;;;;;;;10.23;1.95;;;;;;;;;;5011391;28;20473;-71
2023/03/04 12:49:23;;;;;;;14.25;2.85;;;;;;;;;;5008981;28;20092;-71
2023/03/04 12:51:53;;;;;;;11.93;2.75;;;;;;;;;;5006502;28;20014;-71
2023/03/04 12:54:18;;;;;;;17.60;2.72;;;;;;;;;;5007538;28;20014;-72
2023/03/04 12:56:55;;;;;;;10.20;2.38;;;;;;;;;;5000616;28;20084;-72
2023/03/04 12:59:22;;;;;;;11.80;2.40;;;;;;;;;;5001009;28;20455;-72
2023/03/04 13:01:52;;;;;;;7.60;2.50;;;;;;;;;;5003357;28;20025;-71
2023/03/04 13:04:41;;;;;;;13.95;2.17;;;;;;;;;;5003515;28;20116;-71
2023/03/04 13:07:17;;;;;;;7.22;1.95;;;;;;;;;;5004745;28;20062;-71
2023/03/04 13:09:45;;;;;;;7.60;2.20;;;;;;;;;;5005961;28;20152;-71
2023/03/04 13:12:15;;;;;;;8.80;1.75;;;;;;;;;;5006041;28;20026;-71
2023/03/04 13:15:00;;;;;;;7.22;1.23;;;;;;;;;;5006661;28;20018;-71
2023/03/04 13:17:40;;;;;;;4.00;1.50;;;;;;;;;;5002243;28;20048;-71
2023/03/04 13:20:05;;;;;;;;;;;;;;;;;;5006532;28;20058;-71
2023/03/04 13:22:30;;;;;;;4.47;1.48;;;;;;;;;;5000125;28;19906;-72
2023/03/04 13:24:57;;;;;;;2.67;1.58;;;;;;;;;;5001840;28;20025;-72
2023/03/04 13:27:41;;;;;;;5.63;2.22;;;;;;;;;;4999812;28;20284;-72
2023/03/04 13:30:26;;;;;;;5.70;1.70;;;;;;;;;;5001006;28;20109;-72
2023/03/04 13:32:51;;;;;;;7.65;1.60;;;;;;;;;;5005188;28;20425;-72
2023/03/04 13:35:35;;;;;;;3.83;1.20;;;;;;;;;;5022961;28;20386;-72
2023/03/04 13:38:01;;;;;;;3.95;1.35;;;;;;;;;;5004762;28;20045;-72
2023/03/04 13:40:33;;;;;;;5.97;1.50;;;;;;;;;;5008540;28;20068;-72
2023/03/04 13:43:22;;;;;;;3.22;1.42;;;;;;;;;;5005917;28;21879;-72
2023/03/04 13:45:47;;;;;;;3.08;1.27;;;;;;;;;;5007615;28;20033;-72
2023/03/04 13:48:45;;;;;;;7.40;1.43;;;;;;;;;;5007042;28;20363;-72
2023/03/04 13:51:15;;;;;;;8.10;1.27;;;;;;;;;;5005019;28;20288;-72
2023/03/04 13:53:41;;;;;;;4.68;1.40;;;;;;;;;;5005336;28;20029;-72
2023/03/04 13:56:30;;;;;;;12.43;1.65;;;;;;;;;;5006037;28;20032;-72
2023/03/04 13:59:07;;;;;;;8.27;1.65;;;;;;;;;;5003452;28;20288;-72
2023/03/04 14:01:32;;;;;;;10.00;1.58;;;;;;;;;;5002130;28;20022;-71
2023/03/04 14:03:58;;;;;;;5.43;1.20;;;;;;;;;;5001357;28;20033;-72
2023/03/04 14:06:25;;;;;;;5.20;1.25;;;;;;;;;;5004973;28;20269;-72
2023/03/04 14:08:51;;;;;;;15.68;2.00;;;;;;;;;;5004262;28;20022;-72
2023/03/04 14:11:32;;;;;;;4.07;1.60;;;;;;;;;;5003200;28;20407;-72
2023/03/04 14:13:59;;;;;;;6.00;1.60;;;;;;;;;;5004485;28;20024;-72
2023/03/04 14:16:25;;;;;;;7.65;1.17;;;;;;;;;;5002451;28;20073;-72
2023/03/04 14:18:58;;;;;;;1.58;1.10;;;;;;;;;;5004308;28;20079;-71